createdAt,value
2022-11-23T00:01:35.982Z,2.23
2022-11-23T00:04:10.530Z,2.24
2022-11-23T00:06:38.943Z,2.24
2022-11-23T00:09:07.634Z,2.24
2022-11-23T00:11:35.826Z,2.24
2022-11-23T00:14:04.300Z,2.27
2022-11-23T00:16:32.259Z,2.31
2022-11-23T00:19:01.802Z,2.33
2022-11-23T00:21:32.283Z,2.36
2022-11-23T00:24:00.346Z,2.39
2022-11-23T00:26:30.922Z,2.42
2022-11-23T00:29:00.643Z,2.42
2022-11-23T00:31:28.721Z,2.44
2022-11-23T00:33:57.766Z,2.47
2022-11-23T00:36:27.352Z,2.52
2022-11-23T00:38:55.794Z,2.58
2022-11-23T00:41:26.446Z,2.64
2022-11-23T00:43:54.870Z,2.68
2022-11-23T00:46:25.961Z,2.72
2022-11-23T00:48:56.352Z,2.77
2022-11-23T00:51:26.892Z,2.79
2022-11-23T00:53:55.308Z,2.82
2022-11-23T00:56:23.561Z,2.87
2022-11-23T00:58:53.573Z,2.93
2022-11-23T01:01:24.276Z,2.99
2022-11-23T01:03:55.223Z,3.06
2022-11-23T01:06:30.104Z,3.12
2022-11-23T01:09:02.591Z,3.17
2022-11-23T01:11:32.338Z,3.22
2022-11-23T01:14:00.957Z,3.25
2022-11-23T01:16:34.848Z,3.25
2022-11-23T01:19:04.677Z,3.23
2022-11-23T01:21:34.079Z,3.22
2022-11-23T01:24:13.028Z,3.20
2022-11-23T01:26:41.117Z,3.19
2022-11-23T01:29:08.944Z,3.19
2022-11-23T01:31:40.589Z,3.20
2022-11-23T01:34:14.266Z,3.20
2022-11-23T01:36:42.850Z,3.21
2022-11-23T01:39:12.231Z,3.20
2022-11-23T01:41:42.310Z,3.19
2022-11-23T01:44:41.762Z,3.19
2022-11-23T01:47:10.126Z,3.21
2022-11-23T01:49:45.163Z,3.24
2022-11-23T01:52:17.450Z,3.26
2022-11-23T01:54:49.502Z,3.28
2022-11-23T01:57:21.573Z,3.31
2022-11-23T01:59:50.977Z,3.34
2022-11-23T02:02:19.491Z,3.37
2022-11-23T02:04:52.215Z,3.40
2022-11-23T02:07:24.096Z,3.43
2022-11-23T02:09:52.810Z,3.45
2022-11-23T02:12:20.747Z,3.47
2022-11-23T02:14:48.616Z,3.47
2022-11-23T02:17:16.549Z,3.47
2022-11-23T02:19:56.294Z,3.49
2022-11-23T02:22:49.427Z,3.52
2022-11-23T02:25:27.573Z,3.56
2022-11-23T02:27:56.276Z,3.60
2022-11-23T02:30:25.444Z,3.65
2022-11-23T02:32:53.346Z,3.69
2022-11-23T02:35:21.265Z,3.73
2022-11-23T02:37:51.837Z,3.75
2022-11-23T02:40:32.433Z,3.74
2022-11-23T02:43:00.943Z,3.72
2022-11-23T02:45:41.514Z,3.70
2022-11-23T02:48:09.318Z,3.67
2022-11-23T02:50:37.091Z,3.63
2022-11-23T02:53:05.018Z,3.61
2022-11-23T02:55:33.189Z,3.62
2022-11-23T02:58:01.539Z,3.63
2022-11-23T03:00:29.631Z,3.63
2022-11-23T03:03:00.297Z,3.66
2022-11-23T03:05:28.933Z,3.70
2022-11-23T03:07:56.766Z,3.72
2022-11-23T03:10:25.140Z,3.73
2022-11-23T03:12:56.770Z,3.73
2022-11-23T03:15:24.878Z,3.72
2022-11-23T03:17:52.869Z,3.70
2022-11-23T03:20:20.961Z,3.68
2022-11-23T03:22:48.820Z,3.68
2022-11-23T03:25:16.661Z,3.68
2022-11-23T03:27:44.499Z,3.68
2022-11-23T03:30:12.446Z,3.69
2022-11-23T03:32:40.255Z,3.67
2022-11-23T03:35:08.593Z,3.65
2022-11-23T03:37:36.603Z,3.63
2022-11-23T03:40:04.698Z,3.61
2022-11-23T03:42:32.520Z,3.60
2022-11-23T03:45:00.378Z,3.58
2022-11-23T03:47:28.230Z,3.55
2022-11-23T03:49:56.051Z,3.51
2022-11-23T03:52:23.946Z,3.46
2022-11-23T03:54:51.716Z,3.42
2022-11-23T03:57:19.553Z,3.41
2022-11-23T03:59:47.365Z,3.42
2022-11-23T04:02:15.232Z,3.41
2022-11-23T04:04:43.075Z,3.41
2022-11-23T04:07:11.003Z,3.41
2022-11-23T04:09:38.846Z,3.41
2022-11-23T04:12:07.117Z,3.41
2022-11-23T04:14:35.180Z,3.40
2022-11-23T04:17:03.888Z,3.40
2022-11-23T04:19:32.611Z,3.41
2022-11-23T04:22:00.935Z,3.40
2022-11-23T04:24:28.739Z,3.40
2022-11-23T04:26:56.546Z,3.40
2022-11-23T04:29:24.401Z,3.39
2022-11-23T04:31:52.332Z,3.41
2022-11-23T04:34:20.529Z,3.43
2022-11-23T04:36:48.438Z,3.46
2022-11-23T04:39:16.277Z,3.47
2022-11-23T04:41:44.178Z,3.46
2022-11-23T04:44:12.044Z,3.46
2022-11-23T04:46:39.829Z,3.45
2022-11-23T04:49:09.549Z,3.46
2022-11-23T04:51:37.357Z,3.47
2022-11-23T04:54:05.444Z,3.49
2022-11-23T04:56:33.824Z,3.51
2022-11-23T04:59:01.600Z,3.50
2022-11-23T05:01:29.489Z,3.49
2022-11-23T05:03:57.873Z,3.48
2022-11-23T05:06:25.847Z,3.50
2022-11-23T05:08:54.034Z,3.53
2022-11-23T05:11:22.029Z,3.54
2022-11-23T05:13:49.912Z,3.55
2022-11-23T05:16:17.873Z,3.57
2022-11-23T05:18:45.821Z,3.58
2022-11-23T05:21:13.837Z,3.59
2022-11-23T05:23:41.620Z,3.61
2022-11-23T05:26:09.487Z,3.62
2022-11-23T05:28:40.651Z,3.63
2022-11-23T05:31:09.545Z,3.63
2022-11-23T05:33:37.391Z,3.62
2022-11-23T05:36:05.573Z,3.61
2022-11-23T05:38:33.464Z,3.60
2022-11-23T05:41:01.323Z,3.59
2022-11-23T05:43:29.159Z,3.59
2022-11-23T05:46:00.295Z,3.62
2022-11-23T05:48:28.372Z,3.64
2022-11-23T05:50:57.727Z,3.67
2022-11-23T05:53:31.020Z,3.66
2022-11-23T05:56:01.183Z,3.66
2022-11-23T05:58:29.512Z,3.64
2022-11-23T06:00:59.232Z,3.64
2022-11-23T06:03:27.932Z,3.62
2022-11-23T06:05:55.851Z,3.60
2022-11-23T06:08:23.976Z,3.57
2022-11-23T06:10:51.894Z,3.56
2022-11-23T06:13:19.812Z,3.55
2022-11-23T06:15:47.682Z,3.56
2022-11-23T06:18:15.588Z,3.57
2022-11-23T06:20:43.449Z,3.59
2022-11-23T06:23:11.440Z,3.61
2022-11-23T06:25:39.345Z,3.64
2022-11-23T06:28:07.274Z,3.67
2022-11-23T06:30:35.186Z,3.70
2022-11-23T06:33:04.728Z,3.71
2022-11-23T06:35:32.784Z,3.72
2022-11-23T06:38:00.649Z,3.71
2022-11-23T06:40:29.072Z,3.70
2022-11-23T06:43:00.419Z,3.69
2022-11-23T06:45:28.316Z,3.69
2022-11-23T06:47:57.002Z,3.69
2022-11-23T06:50:24.888Z,3.70
2022-11-23T06:52:57.512Z,3.72
2022-11-23T06:55:25.700Z,3.75
2022-11-23T06:57:53.657Z,3.79
2022-11-23T07:00:21.696Z,3.81
2022-11-23T07:02:54.154Z,3.84
2022-11-23T07:05:23.534Z,3.84
2022-11-23T07:07:51.531Z,3.85
2022-11-23T07:10:20.497Z,3.85
2022-11-23T07:12:48.470Z,3.83
2022-11-23T07:15:16.297Z,3.79
2022-11-23T07:17:46.950Z,3.79
2022-11-23T07:20:14.959Z,3.79
2022-11-23T07:22:42.847Z,3.82
2022-11-23T07:25:11.496Z,3.86
2022-11-23T07:27:39.337Z,3.90
2022-11-23T07:30:08.307Z,3.91
2022-11-23T07:32:36.514Z,3.91
2022-11-23T07:35:04.627Z,3.93
2022-11-23T07:37:33.376Z,3.94
2022-11-23T07:40:01.669Z,3.97
2022-11-23T07:42:34.680Z,3.96
2022-11-23T07:45:05.719Z,3.96
2022-11-23T07:47:33.978Z,3.96
2022-11-23T07:50:01.944Z,3.97
2022-11-23T07:52:29.860Z,3.99
2022-11-23T07:54:57.937Z,4.01
2022-11-23T07:57:25.904Z,4.06
2022-11-23T07:59:53.838Z,4.12
2022-11-23T08:02:21.900Z,4.15
2022-11-23T08:04:49.772Z,4.17
2022-11-23T08:07:17.730Z,4.19
2022-11-23T08:09:45.630Z,4.20
2022-11-23T08:12:13.564Z,4.18
2022-11-23T08:14:41.438Z,4.15
2022-11-23T08:17:09.340Z,4.13
2022-11-23T08:19:37.245Z,4.14
2022-11-23T08:22:05.112Z,4.16
2022-11-23T08:24:33.214Z,4.20
2022-11-23T08:27:01.637Z,4.24
2022-11-23T08:29:30.310Z,4.28
2022-11-23T08:31:58.413Z,4.31
2022-11-23T08:34:26.433Z,4.32
2022-11-23T08:36:54.367Z,4.35
2022-11-23T08:39:22.590Z,4.37
2022-11-23T08:41:50.444Z,4.39
2022-11-23T08:44:18.367Z,4.38
2022-11-23T08:46:46.320Z,4.36
2022-11-23T08:49:14.279Z,4.38
2022-11-23T08:51:47.050Z,4.42
2022-11-23T08:54:17.995Z,4.46
2022-11-23T08:56:46.262Z,4.50
2022-11-23T08:59:14.075Z,4.57
2022-11-23T09:01:42.008Z,4.64
2022-11-23T09:04:10.007Z,4.72
2022-11-23T09:06:37.921Z,4.80
2022-11-23T09:09:05.874Z,4.87
2022-11-23T09:11:33.830Z,4.92
2022-11-23T09:14:01.847Z,4.96
2022-11-23T09:16:33.914Z,5.01
2022-11-23T09:19:02.551Z,5.04
2022-11-23T09:21:33.581Z,5.07
2022-11-23T09:24:02.339Z,5.07
2022-11-23T09:26:31.876Z,5.08
2022-11-23T09:29:00.340Z,5.09
2022-11-23T09:31:28.977Z,5.12
2022-11-23T09:33:57.124Z,5.17
2022-11-23T09:36:25.131Z,5.25
2022-11-23T09:38:57.439Z,5.31
2022-11-23T09:41:50.385Z,5.36
2022-11-23T09:44:39.475Z,5.41
2022-11-23T09:47:25.482Z,5.45
2022-11-23T09:49:56.359Z,5.49
2022-11-23T09:52:25.668Z,5.53
2022-11-23T09:54:57.317Z,5.57
2022-11-23T09:57:30.779Z,5.60
2022-11-23T10:00:19.110Z,5.65
2022-11-23T10:02:47.481Z,5.71
2022-11-23T10:05:22.666Z,5.77
2022-11-23T10:08:04.579Z,5.82
2022-11-23T10:10:45.347Z,5.87
2022-11-23T10:13:46.084Z,5.90
2022-11-23T10:16:46.578Z,5.94
2022-11-23T10:19:46.150Z,5.96
2022-11-23T10:22:26.515Z,5.98
2022-11-23T10:25:08.263Z,6.01
2022-11-23T10:27:36.289Z,6.04
2022-11-23T10:30:12.640Z,6.07
2022-11-23T10:32:55.599Z,6.12
2022-11-23T10:35:33.254Z,6.18
2022-11-23T10:38:22.647Z,6.24
2022-11-23T10:40:59.725Z,6.30
2022-11-23T10:43:34.131Z,6.36
2022-11-23T10:46:34.771Z,6.42
2022-11-23T10:49:10.721Z,6.50
2022-11-23T10:51:39.814Z,6.58
2022-11-23T10:54:27.868Z,6.63
2022-11-23T10:56:57.105Z,6.68
2022-11-23T10:59:31.475Z,6.73
2022-11-23T11:02:18.162Z,6.77
2022-11-23T11:04:47.645Z,6.81
2022-11-23T11:07:28.650Z,6.85
2022-11-23T11:10:00.271Z,6.90
2022-11-23T11:12:30.214Z,6.94
2022-11-23T11:15:14.706Z,7.01
2022-11-23T11:17:42.947Z,7.08
2022-11-23T11:20:29.221Z,7.16
2022-11-23T11:23:15.813Z,7.25
2022-11-23T11:25:44.642Z,7.32
2022-11-23T11:28:24.065Z,7.40
2022-11-23T11:31:14.962Z,7.46
2022-11-23T11:34:03.079Z,7.52
2022-11-23T11:36:38.079Z,7.58
2022-11-23T11:39:19.778Z,7.62
2022-11-23T11:41:50.724Z,7.65
2022-11-23T11:44:26.949Z,7.70
2022-11-23T11:47:19.471Z,7.74
2022-11-23T11:49:50.311Z,7.80
2022-11-23T11:52:26.237Z,7.84
2022-11-23T11:55:12.852Z,7.91
2022-11-23T11:57:54.950Z,7.97
2022-11-23T12:00:23.365Z,8.05
2022-11-23T12:03:19.538Z,8.13
2022-11-23T12:05:53.064Z,8.20
2022-11-23T12:09:07.058Z,8.26
2022-11-23T12:11:35.044Z,8.31
2022-11-23T12:14:05.960Z,8.32
2022-11-23T12:16:59.470Z,8.32
2022-11-23T12:19:48.794Z,8.32
2022-11-23T12:22:16.753Z,8.31
2022-11-23T12:25:11.736Z,8.32
2022-11-23T12:27:45.026Z,8.35
2022-11-23T12:30:54.743Z,8.40
2022-11-23T12:33:25.287Z,8.44
2022-11-23T12:36:09.807Z,8.46
2022-11-23T12:39:22.506Z,8.45
2022-11-23T12:42:11.910Z,8.48
2022-11-23T12:44:42.409Z,8.52
2022-11-23T12:47:38.924Z,8.56
2022-11-23T12:50:49.576Z,8.60
2022-11-23T12:53:36.090Z,8.62
2022-11-23T12:56:16.257Z,8.64
2022-11-23T12:58:46.867Z,8.64
2022-11-23T13:01:29.343Z,8.61
2022-11-23T13:04:01.567Z,8.57
2022-11-23T13:07:43.248Z,8.55
2022-11-23T13:10:27.710Z,8.52
2022-11-23T13:13:20.337Z,8.51
2022-11-23T13:15:57.595Z,8.49
2022-11-23T13:18:58.874Z,8.47
2022-11-23T13:21:39.580Z,8.43
2022-11-23T13:24:35.741Z,8.40
2022-11-23T13:27:13.330Z,8.37
2022-11-23T13:29:58.701Z,8.36
2022-11-23T13:32:38.827Z,8.35
2022-11-23T13:35:18.787Z,8.34
2022-11-23T13:38:00.401Z,8.34
2022-11-23T13:40:32.718Z,8.35
2022-11-23T13:43:05.252Z,8.36
2022-11-23T13:45:36.457Z,8.35
2022-11-23T13:48:13.275Z,8.35
2022-11-23T13:50:47.595Z,8.35
2022-11-23T13:53:25.550Z,8.34
2022-11-23T13:55:57.227Z,8.32
2022-11-23T13:58:25.096Z,8.29
2022-11-23T14:00:58.199Z,8.27
2022-11-23T14:03:48.453Z,8.26
2022-11-23T14:06:56.864Z,8.27
2022-11-23T14:09:34.971Z,8.27
2022-11-23T14:12:12.995Z,8.28
2022-11-23T14:14:43.948Z,8.28
2022-11-23T14:17:20.769Z,8.30
2022-11-23T14:19:48.545Z,8.30
2022-11-23T14:22:31.735Z,8.30
2022-11-23T14:25:30.535Z,8.30
2022-11-23T14:28:33.212Z,8.28
2022-11-23T14:31:07.485Z,8.25
2022-11-23T14:33:46.229Z,8.24
2022-11-23T14:36:29.300Z,8.22
2022-11-23T14:39:19.858Z,8.21
2022-11-23T14:41:53.464Z,8.19
2022-11-23T14:44:26.347Z,8.17
2022-11-23T14:47:05.576Z,8.15
2022-11-23T14:49:34.105Z,8.13
2022-11-23T14:52:04.689Z,8.09
2022-11-23T14:54:33.207Z,8.01
2022-11-23T14:57:04.629Z,7.92
2022-11-23T14:59:40.901Z,7.83
2022-11-23T15:02:17.555Z,7.71
2022-11-23T15:05:14.758Z,7.63
2022-11-23T15:07:52.633Z,7.53
2022-11-23T15:10:42.810Z,7.40
2022-11-23T15:13:22.907Z,7.27
2022-11-23T15:15:53.815Z,7.18
2022-11-23T15:18:33.116Z,7.11
2022-11-23T15:21:04.551Z,7.07
2022-11-23T15:23:50.353Z,7.03
2022-11-23T15:26:46.329Z,7.02
2022-11-23T15:29:29.063Z,7.02
2022-11-23T15:32:22.470Z,6.97
2022-11-23T15:34:45.515Z,6.93
2022-11-23T15:37:13.682Z,6.92
2022-11-23T15:39:42.297Z,6.92
2022-11-23T15:42:22.835Z,6.90
2022-11-23T15:44:52.242Z,6.86
2022-11-23T15:47:27.783Z,6.87
2022-11-23T15:50:08.205Z,6.89
2022-11-23T15:52:37.909Z,6.93
2022-11-23T15:55:10.188Z,6.97
2022-11-23T15:57:39.715Z,7.01
2022-11-23T16:00:12.595Z,7.04
2022-11-23T16:02:40.664Z,7.06
2022-11-23T16:05:11.456Z,7.06
2022-11-23T16:07:59.963Z,7.07
2022-11-23T16:10:29.106Z,7.08
2022-11-23T16:13:00.895Z,7.08
2022-11-23T16:15:32.676Z,7.07
2022-11-23T16:18:02.383Z,7.06
2022-11-23T16:20:31.773Z,7.04
2022-11-23T16:23:01.036Z,7.00
2022-11-23T16:25:32.551Z,6.94
2022-11-23T16:28:02.873Z,6.86
2022-11-23T16:30:42.488Z,6.80
2022-11-23T16:33:19.106Z,6.75
2022-11-23T16:35:47.960Z,6.70
2022-11-23T16:38:16.325Z,6.68
2022-11-23T16:40:45.931Z,6.66
2022-11-23T16:43:15.500Z,6.61
2022-11-23T16:45:49.410Z,6.57
2022-11-23T16:48:26.376Z,6.52
2022-11-23T16:50:55.897Z,6.45
2022-11-23T16:53:27.078Z,6.39
2022-11-23T16:55:57.702Z,6.35
2022-11-23T16:58:27.683Z,6.33
2022-11-23T17:00:56.272Z,6.29
2022-11-23T17:03:25.151Z,6.24
2022-11-23T17:05:53.133Z,6.21
2022-11-23T17:08:23.862Z,6.17
2022-11-23T17:10:52.251Z,6.11
2022-11-23T17:13:26.746Z,6.02
2022-11-23T17:15:55.424Z,5.96
2022-11-23T17:18:23.252Z,5.91
2022-11-23T17:20:51.214Z,5.87
2022-11-23T17:23:19.193Z,5.84
2022-11-23T17:25:47.141Z,5.79
2022-11-23T17:28:17.978Z,5.73
2022-11-23T17:30:45.905Z,5.68
2022-11-23T17:33:14.024Z,5.65
2022-11-23T17:35:42.115Z,5.62
2022-11-23T17:38:16.195Z,5.60
2022-11-23T17:40:44.034Z,5.57
2022-11-23T17:43:15.433Z,5.56
2022-11-23T17:45:44.885Z,5.55
2022-11-23T17:48:15.966Z,5.54
2022-11-23T17:50:43.984Z,5.50
2022-11-23T17:53:11.962Z,5.46
2022-11-23T17:55:41.007Z,5.42
2022-11-23T17:58:11.760Z,5.41
2022-11-23T18:00:39.794Z,5.39
2022-11-23T18:03:07.949Z,5.38
2022-11-23T18:05:36.362Z,5.39
2022-11-23T18:08:04.356Z,5.39
2022-11-23T18:10:32.264Z,5.36
2022-11-23T18:13:00.127Z,5.32
2022-11-23T18:15:30.245Z,5.28
2022-11-23T18:18:03.151Z,5.25
2022-11-23T18:20:32.657Z,5.20
2022-11-23T18:23:01.160Z,5.13
2022-11-23T18:25:29.217Z,5.08
2022-11-23T18:27:57.150Z,5.04
2022-11-23T18:30:24.974Z,5.01
2022-11-23T18:32:52.830Z,4.97
2022-11-23T18:35:20.844Z,4.94
2022-11-23T18:37:48.851Z,4.89
2022-11-23T18:40:16.911Z,4.85
2022-11-23T18:42:45.241Z,4.81
2022-11-23T18:45:13.197Z,4.79
2022-11-23T18:47:41.162Z,4.78
2022-11-23T18:50:09.348Z,4.72
2022-11-23T18:52:37.279Z,4.68
2022-11-23T18:55:05.518Z,4.63
2022-11-23T18:57:33.436Z,4.61
2022-11-23T19:00:01.909Z,4.59
2022-11-23T19:02:30.549Z,4.56
2022-11-23T19:04:58.568Z,4.51
2022-11-23T19:07:27.446Z,4.48
2022-11-23T19:09:55.614Z,4.44
2022-11-23T19:12:23.707Z,4.41
2022-11-23T19:14:51.721Z,4.42
2022-11-23T19:17:19.880Z,4.43
2022-11-23T19:19:47.743Z,4.43
2022-11-23T19:22:15.727Z,4.43
2022-11-23T19:24:43.690Z,4.43
2022-11-23T19:27:11.562Z,4.42
2022-11-23T19:29:39.442Z,4.40
2022-11-23T19:32:07.557Z,4.38
2022-11-23T19:34:35.629Z,4.35
2022-11-23T19:37:03.556Z,4.32
2022-11-23T19:39:31.866Z,4.26
2022-11-23T19:42:00.187Z,4.19
2022-11-23T19:44:28.329Z,4.15
2022-11-23T19:46:56.412Z,4.13
2022-11-23T19:49:24.398Z,4.10
2022-11-23T19:51:53.780Z,4.04
2022-11-23T19:54:21.710Z,3.99
2022-11-23T19:56:50.376Z,3.95
2022-11-23T19:59:18.434Z,3.91
2022-11-23T20:01:46.462Z,3.86
2022-11-23T20:04:14.349Z,3.83
2022-11-23T20:06:44.513Z,3.80
2022-11-23T20:09:17.074Z,3.73
2022-11-23T20:11:50.397Z,3.68
2022-11-23T20:14:19.510Z,3.64
2022-11-23T20:16:48.055Z,3.61
2022-11-23T20:19:16.286Z,3.60
2022-11-23T20:21:44.232Z,3.58
2022-11-23T20:24:15.065Z,3.58
2022-11-23T20:26:43.404Z,3.58
2022-11-23T20:29:13.816Z,3.59
2022-11-23T20:31:41.987Z,3.56
2022-11-23T20:34:14.225Z,3.52
2022-11-23T20:36:45.708Z,3.49
2022-11-23T20:39:16.164Z,3.49
2022-11-23T20:41:45.192Z,3.53
2022-11-23T20:44:14.426Z,3.57
2022-11-23T20:47:01.192Z,3.60
2022-11-23T20:49:31.724Z,3.63
2022-11-23T20:52:00.197Z,3.62
2022-11-23T20:54:28.627Z,3.59
2022-11-23T20:57:00.137Z,3.57
2022-11-23T20:59:28.440Z,3.58
2022-11-23T21:01:56.605Z,3.60
2022-11-23T21:04:24.662Z,3.61
2022-11-23T21:06:52.586Z,3.63
2022-11-23T21:09:20.480Z,3.63
2022-11-23T21:12:07.093Z,3.62
2022-11-23T21:14:35.044Z,3.64
2022-11-23T21:17:03.823Z,3.68
2022-11-23T21:19:32.712Z,3.72
2022-11-23T21:22:18.743Z,3.77
2022-11-23T21:24:46.626Z,3.82
2022-11-23T21:27:14.505Z,3.82
2022-11-23T21:29:45.057Z,3.83
2022-11-23T21:32:14.988Z,3.85
2022-11-23T21:34:43.202Z,3.89
2022-11-23T21:37:12.505Z,3.92
2022-11-23T21:39:42.105Z,3.95
2022-11-23T21:42:10.572Z,3.97
2022-11-23T21:44:38.445Z,3.96
2022-11-23T21:47:06.846Z,3.97
2022-11-23T21:49:34.829Z,3.99
2022-11-23T21:52:02.694Z,4.00
2022-11-23T21:54:30.550Z,4.01
2022-11-23T21:56:58.711Z,4.04
2022-11-23T21:59:26.590Z,4.08
2022-11-23T22:01:57.270Z,4.12
2022-11-23T22:04:25.419Z,4.15
2022-11-23T22:06:53.220Z,4.16
2022-11-23T22:09:21.078Z,4.17
2022-11-23T22:11:49.505Z,4.18
2022-11-23T22:14:19.608Z,4.17
2022-11-23T22:16:56.739Z,4.18
2022-11-23T22:19:24.564Z,4.17
2022-11-23T22:21:52.378Z,4.18
2022-11-23T22:24:22.588Z,4.20
2022-11-23T22:26:50.461Z,4.23
2022-11-23T22:29:18.412Z,4.26
2022-11-23T22:31:46.234Z,4.25
2022-11-23T22:34:14.917Z,4.20
2022-11-23T22:36:43.056Z,4.15
2022-11-23T22:39:11.125Z,4.13
2022-11-23T22:41:39.475Z,4.16
2022-11-23T22:44:10.158Z,4.20
2022-11-23T22:46:38.989Z,4.25
2022-11-23T22:49:07.350Z,4.29
2022-11-23T22:51:35.364Z,4.32
2022-11-23T22:54:03.936Z,4.33
2022-11-23T22:56:31.893Z,4.34
2022-11-23T22:59:00.196Z,4.36
2022-11-23T23:01:30.519Z,4.37
2022-11-23T23:04:01.599Z,4.40
2022-11-23T23:06:34.630Z,4.42
2022-11-23T23:09:06.550Z,4.43
2022-11-23T23:11:36.274Z,4.41
2022-11-23T23:14:04.156Z,4.40
2022-11-23T23:16:32.250Z,4.40
2022-11-23T23:19:00.549Z,4.39
2022-11-23T23:21:29.271Z,4.40
2022-11-23T23:24:00.944Z,4.40
2022-11-23T23:26:29.398Z,4.38
2022-11-23T23:28:59.675Z,4.35
2022-11-23T23:31:29.286Z,4.32
2022-11-23T23:33:59.358Z,4.30
2022-11-23T23:36:27.671Z,4.28
2022-11-23T23:38:55.741Z,4.25
2022-11-23T23:41:23.595Z,4.21
2022-11-23T23:43:51.534Z,4.19
2022-11-23T23:46:19.607Z,4.16
2022-11-23T23:48:47.578Z,4.13
2022-11-23T23:51:21.492Z,4.12
2022-11-23T23:53:51.187Z,4.13
2022-11-23T23:56:24.284Z,4.11
2022-11-23T23:58:53.305Z,4.11
